Portada
METAR-TAF:

METAR-TAF

Aeroports :

Aeroport Internacional de Ginebra

Ginebra, Suïssa

latitud: 46-15N, longitud: 006-08E, altitud: 420 m

Observació

L'informe es va fer fa 31 minuts, a les 00:20 UTC
Vent 10 kt del Nord-Est
Temperatura 6°C
Humitat 56%
Pressió 1028 hPa
Visibilitat 10 km o més
sense núvols per sota de 1500 mi sense presència de cumulonimbus.

METAR: LSGG 200020Z AUTO 04010KT CAVOK 06/M02 Q1028 NOSIG

Hora: 01:51 (00:51 UTC)

Pronòstic

L'informe es va fer fa 1 hora i 26 minuts, a les 23:25 UTC
Pronòstic vàlid del 20 a les 00 UTC al 21 a les 06 UTC
Vent 7 kt del Nord-Est
Visibilitat 10 km o més
sense núvols per sota de 1500 mi sense presència de cumulonimbus.
Evolucionant progressivament
l' 20 a les 08 UTC al 20 a les 10 UTC
Vent 15 kt del Nord-Est amb ràfegues de 30 kt
Evolucionant progressivament
l' 20 a les 20 UTC al 20 a les 22 UTC
Vent 7 kt del Nord-Est

TAF: LSGG 192325Z 2000/2106 05007KT CAVOK TX11/2015Z TN01/2006Z TN00/2106Z BECMG 2008/2010 05015G30KT BECMG 2020/2022 05007KT

Observacions i pronòstics meteorològics de més de 4000 aeroports (METAR i TAF).

Les estacions disponibles són els punts grocs i vermells al mapa.

Posi el ratolí al punt desitjat per veure el nom de l'estació.

Feu clic per veure les observacions i els pronòstics meteorològics.

Per canviar el mapa: feu clic els botons verds amb una creu de color negre per apropar; al botó verd amb un guió per allunyar la imatge; o en les fletxes verdes per a mapes adjacents.


METAR-TAF: